• Join FlightAware (Why Join?)
  • Login
  • US Flag 
Rudolph Flight #1: Scheduled 
08:00PM EST


 

Airport Tracker/Info


-or-


 

Live Flight TrackerFlight Track Log ✈ UCA4769 ✈ 01-May-2012 ✈ KCLE - KSYR

Flight Track Log - Related Links

Times and Time Zones

All times are in EDT time to prevent confusion due to time zone crossing. See the UCA4769 flight status page for this flight to view local times or setup timezone preferences in your user account.

Time Position Orientation Groundspeed Altitude Reporting Facility
EDT Latitude Longitude Course Direction KTS MPH feet Rate Location/Type
03:41PM 41.3981 -81.8731 305° West 129 148 1,600  Level Cleveland Center
03:42PM 41.4228 -81.9206 319° Northwest 171 197 3,100 1,440 Climbing Cleveland Center
03:43PM 41.4658 -81.9714 343° North 180 207 5,000 960 Climbing Cleveland Center
03:44PM 41.5094 -81.9889 50° Northeast 185 213 5,300 540 Climbing Cleveland Center
03:45PM 41.5519 -81.9206 53° Northeast 154 177 6,100 300 Climbing Cleveland Center
03:46PM 41.5903 -81.8519 18° North 181 208 6,000 180 Descending Cleveland Center
03:47PM 41.6447 -81.8281 23° Northeast 197 227 6,500 780 Climbing Cleveland Center
03:48PM 41.6972 -81.7983 66° East 202 232 7,600 960 Climbing Cleveland Center
03:49PM 41.7272 -81.7100 62° Northeast 216 249 8,500 900 Climbing Cleveland Center
03:50PM 41.7614 -81.6242 65° Northeast 235 270 9,500 1,020 Climbing Cleveland Center
03:51PM 41.7914 -81.5383 68° East 251 289 10,600 1,080 Climbing Cleveland Center
03:52PM 41.8192 -81.4469 69° East 256 295 11,700 960 Climbing Cleveland Center
03:53PM 41.8447 -81.3553 71° East 256 295 12,600 960 Climbing Cleveland Center
03:54PM 41.8683 -81.2606 69° East 261 300 13,700 960 Climbing Cleveland Center
03:55PM 41.8939 -81.1717 70° East 261 300 14,600 1,080 Climbing Cleveland Center
03:56PM 41.9172 -81.0856 71° East 261 300 15,900 1,020 Climbing Cleveland Center
03:57PM 41.9383 -81.0047 71° East 251 289 16,700 840 Climbing Cleveland Center
03:58PM 41.9594 -80.9211 71° East 245 282 17,600 780 Climbing Cleveland Center
03:59PM 41.9825 -80.8317 69° East 245 282 18,300 660 Climbing Cleveland Center
04:00PM 42.0078 -80.7425 69° East 250 288 19,000 780 Climbing Cleveland Center
04:01PM 42.0328 -80.6531 72° East 250 288 19,900 720 Climbing Cleveland Center
04:02PM 42.0558 -80.5581 71° East 250 288 20,500 540 Climbing Cleveland Center
04:03PM 42.0808 -80.4572 70° East 250 288 21,000 240 Climbing Cleveland Center
04:04PM 42.1078 -80.3564 71° East 268 308 21,000  Level Cleveland Center
04:05PM 42.1347 -80.2528 71° East 282 325 21,000  Level Cleveland Center
04:06PM 42.1614 -80.1461 70° East 287 330 21,000  Level Cleveland Center
04:07PM 42.1900 -80.0422 71° East 293 337 21,000  Level Cleveland Center
04:08PM 42.2147 -79.9467 70° East 293 337 21,000  Level Cleveland Center
04:09PM 42.2431 -79.8400 72° East 293 337 21,000  Level Cleveland Center
04:10PM 42.2694 -79.7331 73° East 293 337 21,000  Level Cleveland Center
04:11PM 42.2936 -79.6261 67° East 293 337 21,000  Level Cleveland Center
04:12PM 42.3261 -79.5244 62° Northeast 293 337 21,000  Level Cleveland Center
04:13PM 42.3647 -79.4256 60° Northeast 288 331 21,000  Level Cleveland Center
04:14PM 42.4056 -79.3292 62° Northeast 288 331 21,000  Level Cleveland Center
04:15PM 42.4419 -79.2356 62° Northeast 293 337 21,000  Level Cleveland Center
04:16PM 42.4844 -79.1275 63° Northeast 293 337 21,000  Level Cleveland Center
04:17PM 42.5206 -79.0311 74° East 292 336 21,000  Level Cleveland Center
04:18PM 42.5442 -78.9206 73° East 292 336 21,000  Level Cleveland Center
04:19PM 42.5717 -78.8014 73° East 292 336 21,000  Level Cleveland Center
04:20PM 42.5950 -78.6964 74° East 292 336 21,000  Level Cleveland Center
04:21PM 42.6181 -78.5856 73° East 292 336 21,000  Level Cleveland Center
04:22PM 42.6411 -78.4803 74° East 292 336 21,000  Level Cleveland Center
04:23PM 42.6642 -78.3694 74° East 297 342 21,000  Level Cleveland Center
04:24PM 42.6869 -78.2614 74° East 297 342 21,000  Level Cleveland Center
04:25PM 42.7097 -78.1531 75° East 297 342 21,000  Level Cleveland Center
04:26PM 42.7303 -78.0450 75° East 297 342 21,000  Level Cleveland Center
04:27PM 42.7492 -77.9481 74° East 297 342 21,000  Level Cleveland Center
04:28PM 42.7717 -77.8394 73° East 297 342 21,000 -420 Level Cleveland Center
04:29PM 42.7958 -77.7281 75° East 297 342 20,200 -1,020 Descending Cleveland Center
04:30PM 42.8200 -77.6053 74° East 302 348 19,000 -1,200 Descending Cleveland Center
04:31PM 42.8442 -77.4908 75° East 307 353 17,800 -1,200 Descending Cleveland Center
04:32PM 42.8661 -77.3792 75° East 302 348 16,600 -1,200 Descending Cleveland Center
04:33PM 42.8878 -77.2675 74° East 302 348 15,400 -1,200 Descending Cleveland Center
04:34PM 42.9117 -77.1531 75° East 302 348 14,200 -1,200 Descending Cleveland Center
04:36PM 42.9511 -76.9483 75° East 301 346 11,900 -1,140 Descending Boston Center
04:37PM 42.9744 -76.8308 75° East 294 338 11,000 -900 Descending Boston Center
04:38PM 42.9950 -76.7272 86° East 284 327 10,200 -1,080 Descending Boston Center
04:39PM 43.0011 -76.6197 89° East 289 333 8,900 -1,260 Descending Boston Center
04:40PM 43.0028 -76.5147 90° East 278 320 7,700 -960 Descending Boston Center
04:41PM 43.0022 -76.4125 90° East 269 310 7,000 -360 Descending Boston Center
04:42PM 43.0017 -76.3103 90° East 266 306 7,000 -600 Level Boston Center
04:43PM 43.0011 -76.2022 87° East 265 305 5,900 -1,020 Descending Boston Center
04:44PM 43.0042 -76.1058 79° East 261 300 5,000 -480 Descending Boston Center
04:45PM 43.0178 -76.0100 79° East 252 290 5,000 -540 Level Boston Center
04:46PM 43.0308 -75.9197 79° East 240 276 4,000 -1,020 Descending Boston Center